WetterOnline ( https://www.wetteronline.de )

Wetter aktuell Frankfurt am Main

Aktuelles Wetter: Offenbach (119m)

6-stündlich | Neueste Meldungen
Ortszeit Temperatur Wetter
Sa, 08.05. 8:00 4.2° C leicht bewölkt
Sa, 08.05. 2:00 1.3° C fast wolkenlos
Fr, 07.05. 20:00 11.1° C fast wolkenlos
Fr, 07.05. 14:00 9.4° C bewölkt
Fr, 07.05. 8:00 6.3° C wolkenlos
Fr, 07.05. 2:00 6.0° C bedeckt
Do, 06.05. 20:00 7.5° C Sprühregen
Do, 06.05. 14:00 11.0° C bedeckt
Ortszeit Temperatur Wetter
Sa, 08.05. 13:00 14.6° C wolkig
Sa, 08.05. 12:50 14.6° C bedeckt
Sa, 08.05. 12:40 14.9° C bedeckt
Sa, 08.05. 12:30 14.0° C bedeckt
Sa, 08.05. 12:20 14.0° C bedeckt
Sa, 08.05. 12:10 13.9° C bedeckt
Sa, 08.05. 12:00 13.3° C wolkig
Sa, 08.05. 11:30 13.1° C bedeckt
Sa, 08.05. 11:00 11.7° C bedeckt
Sa, 08.05. 10:30 10.9° C bedeckt
Sa, 08.05. 10:00 9.6° C wolkig
Ortszeit Relative Feuchte Sichtweite
Sa, 08.05. 8:00 74% 45 km
Sa, 08.05. 2:00 90% 40 km
Fr, 07.05. 20:00 42% 45 km
Fr, 07.05. 14:00 64% 55 km
Fr, 07.05. 8:00 73% 17 km
Fr, 07.05. 2:00 91% 27 km
Do, 06.05. 20:00 93% 10 km
Do, 06.05. 14:00 58% 60 km
Ortszeit Relative Feuchte Sichtweite
Sa, 08.05. 13:00 37% 50 km
Sa, 08.05. 12:50 37% -
Sa, 08.05. 12:40 40% -
Sa, 08.05. 12:30 41% 55 km
Sa, 08.05. 12:20 41% -
Sa, 08.05. 12:10 42% -
Sa, 08.05. 12:00 40% 35 km
Sa, 08.05. 11:30 48% 65 km
Sa, 08.05. 11:00 49% >70 km
Sa, 08.05. 10:30 49% 50 km
Sa, 08.05. 10:00 52% 50 km
Ortszeit Niederschlagsmenge Niederschlagsart
Sa, 08.05. 8:00 0.0 l/m2 in 12 Std. -
Sa, 08.05. 2:00 0.0 l/m2 in 6 Std. -
Fr, 07.05. 20:00 1 l/m2 in 12 Std. -
Fr, 07.05. 14:00 1 l/m2 in 6 Std. Regen
Fr, 07.05. 8:00 2 l/m2 in 12 Std. Regen
Fr, 07.05. 2:00 2 l/m2 in 6 Std. Regen
Do, 06.05. 20:00 4 l/m2 in 12 Std. Regen
Do, 06.05. 14:00 0.1 l/m2 in 6 Std. Regen
Ortszeit Niederschlagsmenge Niederschlagsart
Sa, 08.05. 13:00 0.0 l/m2 in 1 Std. -
Sa, 08.05. 12:50 keine Meldung -
Sa, 08.05. 12:40 keine Meldung -
Sa, 08.05. 12:30 0.0 l/m2 in 1 Std. -
Sa, 08.05. 12:20 keine Meldung -
Sa, 08.05. 12:10 keine Meldung -
Sa, 08.05. 12:00 0.0 l/m2 in 1 Std. -
Sa, 08.05. 11:30 0.0 l/m2 in 1 Std. -
Sa, 08.05. 11:00 0.0 l/m2 in 1 Std. -
Sa, 08.05. 10:30 0.0 l/m2 in 1 Std. -
Sa, 08.05. 10:00 0.0 l/m2 in 1 Std. -
Ortszeit Stärke Spitze Richtung
km/h Bft. km/h Grad Sektor
Sa, 08.05. 8:00 0 0 7 - -
Sa, 08.05. 2:00 4 1 18 140° SO
Fr, 07.05. 20:00 7 2 43 320° NW
Fr, 07.05. 14:00 17 3 54 270° W
Fr, 07.05. 8:00 7 2 29 200° S
Fr, 07.05. 2:00 9 2 19 210° SW
Do, 06.05. 20:00 4 1 25 120° SO
Do, 06.05. 14:00 11 2 26 180° S
Ortszeit Stärke Spitze Richtung
km/h Bft. km/h Grad Sektor
Sa, 08.05. 13:00 13 3 26 190° S
Sa, 08.05. 12:50 13 3 - 190° S
Sa, 08.05. 12:40 9 2 - 220° SW
Sa, 08.05. 12:30 11 2 25 180° S
Sa, 08.05. 12:20 11 2 - 180° S
Sa, 08.05. 12:10 13 3 - 180° S
Sa, 08.05. 12:00 9 2 20 150° SO
Sa, 08.05. 11:30 7 2 14 140° SO
Sa, 08.05. 11:00 4 1 11 170° S
Sa, 08.05. 10:30 2 1 9 240° SW
Sa, 08.05. 10:00 4 1 7 220° SW
Ortszeit Untergrenze Bedeckung Gattung
total tief tief mittel hoch
Sa, 08.05. 8:00 10500 m 3/8 0/8 - - -
Sa, 08.05. 2:00 2100 m 1/8 1/8 - - -
Fr, 07.05. 20:00 1800 m 1/8 1/8 - - -
Fr, 07.05. 14:00 660 m 7/8 7/8 - - -
Fr, 07.05. 8:00 - 0/8 0/8 - - -
Fr, 07.05. 2:00 720 m 8/8 8/8 - - -
Do, 06.05. 20:00 600 m 8/8 8/8 - - -
Do, 06.05. 14:00 1020 m 8/8 8/8 - - -
Ortszeit Bedeckungsgrad in Achtel und Wolkenuntergrenze
Sa, 08.05. 13:00 8(2700m) 8(5700m) 8(8100m)
Sa, 08.05. 12:50 8(2700m) 8(5700m) 8(8100m)
Sa, 08.05. 12:40 8(2700m) 8(8100m)
Sa, 08.05. 12:30 8(3000m) 8(6300m)
Sa, 08.05. 12:20 8(3000m) 8(6300m)
Sa, 08.05. 12:10 8(3000m) 8(6300m) 8(8100m)
Sa, 08.05. 12:00 8(3000m) 8(7500m) 8(8100m)
Sa, 08.05. 11:30 8(3300m) 8(3600m) 8(7500m)
Sa, 08.05. 11:00 6(3300m) 8(3900m)
Sa, 08.05. 10:30 7(4500m) 8(5400m) 8(6000m)
Sa, 08.05. 10:00 4(4800m) 7(6600m) 7(8100m)
Ortszeit Luftdruck NN (hPa) Tendenz (hPa in 3 Std.)
Sa, 08.05. 8:00 1020 + 0,1
Sa, 08.05. 2:00 1021 + 0,3
Fr, 07.05. 20:00 1019 + 1,2
Fr, 07.05. 14:00 1015 + 2,5
Fr, 07.05. 8:00 1011 + 2,6
Fr, 07.05. 2:00 1008 + 2,0
Do, 06.05. 20:00 1004 - 1,6
Do, 06.05. 14:00 1008 - 1,9
Ortszeit Luftdruck NN (hPa) Tendenz (hPa in 3 Std.)
Sa, 08.05. 13:00 1018 - 1,9
Sa, 08.05. 12:50 1018 keine Meldung
Sa, 08.05. 12:40 1018 keine Meldung
Sa, 08.05. 12:30 1018 - 1,6
Sa, 08.05. 12:20 1018 keine Meldung
Sa, 08.05. 12:10 1018 keine Meldung
Sa, 08.05. 12:00 1019 - 1,2
Sa, 08.05. 11:30 1019 - 0,9
Sa, 08.05. 11:00 1019 - 0,7
Sa, 08.05. 10:30 1020 - 0,2
Sa, 08.05. 10:00 1020 0,0
Ortszeit Schneehöhe (cm)
Sa, 08.05. 8:00 0
Sa, 08.05. 2:00 0
Fr, 07.05. 20:00 0
Fr, 07.05. 14:00 0
Fr, 07.05. 8:00 0
Fr, 07.05. 2:00 0
Do, 06.05. 20:00 0
Do, 06.05. 14:00 0
Ortszeit Schneehöhe (cm)
Sa, 08.05. 13:00 0
Sa, 08.05. 12:50 0
Sa, 08.05. 12:40 0
Sa, 08.05. 12:30 0
Sa, 08.05. 12:20 0
Sa, 08.05. 12:10 0
Sa, 08.05. 12:00 0
Sa, 08.05. 11:30 0
Sa, 08.05. 11:00 0
Sa, 08.05. 10:30 0
Sa, 08.05. 10:00 0
Link zu dieser Seite / Seite empfehlen

Das Wetter in ...